sensor_id;sensor_type;location;lat;lon;timestamp;temperature;humidity
18103;DHT22;9178;51.120;6.192;2022-09-03T00:02:34;17.00;77.70
18103;DHT22;9178;51.120;6.192;2022-09-03T00:05:07;17.00;77.60
18103;DHT22;9178;51.120;6.192;2022-09-03T00:07:41;17.00;77.90
18103;DHT22;9178;51.120;6.192;2022-09-03T00:10:13;16.90;78.10
18103;DHT22;9178;51.120;6.192;2022-09-03T00:12:43;16.90;78.70
18103;DHT22;9178;51.120;6.192;2022-09-03T00:15:13;16.80;78.80
18103;DHT22;9178;51.120;6.192;2022-09-03T00:17:43;16.80;79.00
18103;DHT22;9178;51.120;6.192;2022-09-03T00:20:16;16.80;79.30
18103;DHT22;9178;51.120;6.192;2022-09-03T00:22:47;16.80;79.20
18103;DHT22;9178;51.120;6.192;2022-09-03T00:25:18;16.70;79.40
18103;DHT22;9178;51.120;6.192;2022-09-03T00:27:50;16.80;79.30
18103;DHT22;9178;51.120;6.192;2022-09-03T00:30:20;16.80;79.30
18103;DHT22;9178;51.120;6.192;2022-09-03T00:32:51;16.70;79.50
18103;DHT22;9178;51.120;6.192;2022-09-03T00:35:24;16.70;79.90
18103;DHT22;9178;51.120;6.192;2022-09-03T00:37:53;16.70;79.90
18103;DHT22;9178;51.120;6.192;2022-09-03T00:40:37;16.70;80.10
18103;DHT22;9178;51.120;6.192;2022-09-03T00:43:18;16.70;79.90
18103;DHT22;9178;51.120;6.192;2022-09-03T00:45:56;16.60;80.10
18103;DHT22;9178;51.120;6.192;2022-09-03T00:48:30;16.60;80.20
18103;DHT22;9178;51.120;6.192;2022-09-03T00:51:09;16.60;80.30
18103;DHT22;9178;51.120;6.192;2022-09-03T00:53:48;16.60;80.40
18103;DHT22;9178;51.120;6.192;2022-09-03T00:56:24;16.60;80.40
18103;DHT22;9178;51.120;6.192;2022-09-03T00:59:02;16.60;80.80
18103;DHT22;9178;51.120;6.192;2022-09-03T01:01:38;16.60;80.80
18103;DHT22;9178;51.120;6.192;2022-09-03T01:04:17;16.50;81.60
18103;DHT22;9178;51.120;6.192;2022-09-03T01:06:54;16.50;81.10
18103;DHT22;9178;51.120;6.192;2022-09-03T01:09:34;16.50;81.20
18103;DHT22;9178;51.120;6.192;2022-09-03T01:12:08;16.40;81.40
18103;DHT22;9178;51.120;6.192;2022-09-03T01:14:51;16.40;81.80
18103;DHT22;9178;51.120;6.192;2022-09-03T01:17:38;16.40;81.90
18103;DHT22;9178;51.120;6.192;2022-09-03T01:20:18;16.40;81.90
18103;DHT22;9178;51.120;6.192;2022-09-03T01:26:05;16.30;82.20
18103;DHT22;9178;51.120;6.192;2022-09-03T01:28:48;16.30;82.70
18103;DHT22;9178;51.120;6.192;2022-09-03T01:31:26;16.30;82.70
18103;DHT22;9178;51.120;6.192;2022-09-03T01:34:00;16.20;82.90
18103;DHT22;9178;51.120;6.192;2022-09-03T01:36:36;16.20;83.00
18103;DHT22;9178;51.120;6.192;2022-09-03T01:39:09;16.20;83.00
18103;DHT22;9178;51.120;6.192;2022-09-03T01:41:46;16.20;83.30
18103;DHT22;9178;51.120;6.192;2022-09-03T01:44:46;16.20;83.70
18103;DHT22;9178;51.120;6.192;2022-09-03T01:47:25;16.10;83.60
18103;DHT22;9178;51.120;6.192;2022-09-03T01:50:04;16.10;83.70
18103;DHT22;9178;51.120;6.192;2022-09-03T01:52:39;16.10;84.10
18103;DHT22;9178;51.120;6.192;2022-09-03T01:55:20;16.00;84.20
18103;DHT22;9178;51.120;6.192;2022-09-03T01:57:53;16.00;84.70
18103;DHT22;9178;51.120;6.192;2022-09-03T02:00:24;16.00;84.80
18103;DHT22;9178;51.120;6.192;2022-09-03T02:02:52;16.00;85.10
18103;DHT22;9178;51.120;6.192;2022-09-03T02:05:21;15.90;85.20
18103;DHT22;9178;51.120;6.192;2022-09-03T02:07:52;15.90;85.40
18103;DHT22;9178;51.120;6.192;2022-09-03T02:10:23;15.90;85.70
18103;DHT22;9178;51.120;6.192;2022-09-03T02:12:55;15.90;85.90
18103;DHT22;9178;51.120;6.192;2022-09-03T02:15:25;15.80;86.20
18103;DHT22;9178;51.120;6.192;2022-09-03T02:17:55;15.90;86.60
18103;DHT22;9178;51.120;6.192;2022-09-03T02:20:27;15.80;86.80
18103;DHT22;9178;51.120;6.192;2022-09-03T02:22:56;15.80;87.10
18103;DHT22;9178;51.120;6.192;2022-09-03T02:25:30;15.80;87.60
18103;DHT22;9178;51.120;6.192;2022-09-03T02:27:58;15.70;87.50
18103;DHT22;9178;51.120;6.192;2022-09-03T02:30:27;15.70;87.90
18103;DHT22;9178;51.120;6.192;2022-09-03T02:32:54;15.70;88.00
18103;DHT22;9178;51.120;6.192;2022-09-03T02:35:20;15.70;88.60
18103;DHT22;9178;51.120;6.192;2022-09-03T02:37:47;15.70;89.70
18103;DHT22;9178;51.120;6.192;2022-09-03T02:40:14;15.70;89.70
18103;DHT22;9178;51.120;6.192;2022-09-03T02:42:41;15.60;90.00
18103;DHT22;9178;51.120;6.192;2022-09-03T02:45:17;15.60;90.20
18103;DHT22;9178;51.120;6.192;2022-09-03T02:47:50;15.60;90.40
18103;DHT22;9178;51.120;6.192;2022-09-03T02:50:17;15.60;90.50
18103;DHT22;9178;51.120;6.192;2022-09-03T02:52:44;15.60;90.60
18103;DHT22;9178;51.120;6.192;2022-09-03T02:55:11;15.50;90.90
18103;DHT22;9178;51.120;6.192;2022-09-03T02:57:38;15.50;91.00
18103;DHT22;9178;51.120;6.192;2022-09-03T03:00:05;15.50;91.50
18103;DHT22;9178;51.120;6.192;2022-09-03T03:02:33;15.50;91.50
18103;DHT22;9178;51.120;6.192;2022-09-03T03:05:01;15.50;91.70
18103;DHT22;9178;51.120;6.192;2022-09-03T03:07:31;15.50;91.60
18103;DHT22;9178;51.120;6.192;2022-09-03T03:09:59;15.50;92.10
18103;DHT22;9178;51.120;6.192;2022-09-03T03:12:26;15.50;92.10
18103;DHT22;9178;51.120;6.192;2022-09-03T03:14:54;15.50;92.70
18103;DHT22;9178;51.120;6.192;2022-09-03T03:17:21;15.40;92.60
18103;DHT22;9178;51.120;6.192;2022-09-03T03:19:48;15.40;93.00
18103;DHT22;9178;51.120;6.192;2022-09-03T03:22:16;15.40;93.70
18103;DHT22;9178;51.120;6.192;2022-09-03T03:24:43;15.40;93.80
18103;DHT22;9178;51.120;6.192;2022-09-03T03:27:09;15.40;94.00
18103;DHT22;9178;51.120;6.192;2022-09-03T03:29:37;15.40;93.90
18103;DHT22;9178;51.120;6.192;2022-09-03T03:32:04;15.40;94.00
18103;DHT22;9178;51.120;6.192;2022-09-03T03:34:31;15.40;93.90
18103;DHT22;9178;51.120;6.192;2022-09-03T03:36:58;15.40;94.40
18103;DHT22;9178;51.120;6.192;2022-09-03T03:39:26;15.40;94.60
18103;DHT22;9178;51.120;6.192;2022-09-03T03:41:53;15.40;95.90
18103;DHT22;9178;51.120;6.192;2022-09-03T03:44:21;15.50;94.90
18103;DHT22;9178;51.120;6.192;2022-09-03T03:46:48;15.50;95.00
18103;DHT22;9178;51.120;6.192;2022-09-03T03:49:15;15.50;95.20
18103;DHT22;9178;51.120;6.192;2022-09-03T03:51:42;15.60;95.20
18103;DHT22;9178;51.120;6.192;2022-09-03T03:54:10;15.60;95.80
18103;DHT22;9178;51.120;6.192;2022-09-03T03:56:38;15.60;95.50
18103;DHT22;9178;51.120;6.192;2022-09-03T03:59:05;15.60;95.50
18103;DHT22;9178;51.120;6.192;2022-09-03T04:01:32;15.60;95.50
18103;DHT22;9178;51.120;6.192;2022-09-03T04:03:58;15.60;95.70
18103;DHT22;9178;51.120;6.192;2022-09-03T04:06:26;15.60;95.40
18103;DHT22;9178;51.120;6.192;2022-09-03T04:08:53;15.60;95.70
18103;DHT22;9178;51.120;6.192;2022-09-03T04:11:22;15.60;95.60
18103;DHT22;9178;51.120;6.192;2022-09-03T04:13:51;15.70;95.80
18103;DHT22;9178;51.120;6.192;2022-09-03T04:16:19;15.70;96.00
18103;DHT22;9178;51.120;6.192;2022-09-03T04:18:48;15.70;96.00
18103;DHT22;9178;51.120;6.192;2022-09-03T04:21:17;15.70;96.10
18103;DHT22;9178;51.120;6.192;2022-09-03T04:23:46;15.70;96.60
18103;DHT22;9178;51.120;6.192;2022-09-03T04:26:16;15.70;96.20
18103;DHT22;9178;51.120;6.192;2022-09-03T04:28:43;15.70;96.40
18103;DHT22;9178;51.120;6.192;2022-09-03T04:31:13;15.70;96.60
18103;DHT22;9178;51.120;6.192;2022-09-03T04:33:41;15.70;96.90
18103;DHT22;9178;51.120;6.192;2022-09-03T04:36:10;15.70;96.70
18103;DHT22;9178;51.120;6.192;2022-09-03T04:38:39;15.70;96.80
18103;DHT22;9178;51.120;6.192;2022-09-03T04:41:09;15.70;96.90
18103;DHT22;9178;51.120;6.192;2022-09-03T04:43:36;15.70;97.20
18103;DHT22;9178;51.120;6.192;2022-09-03T04:46:05;15.70;97.40
18103;DHT22;9178;51.120;6.192;2022-09-03T04:48:34;15.70;97.30
18103;DHT22;9178;51.120;6.192;2022-09-03T04:51:03;15.70;97.20
18103;DHT22;9178;51.120;6.192;2022-09-03T04:53:32;15.80;97.20
18103;DHT22;9178;51.120;6.192;2022-09-03T04:55:59;15.70;97.30
18103;DHT22;9178;51.120;6.192;2022-09-03T04:58:26;15.80;97.30
18103;DHT22;9178;51.120;6.192;2022-09-03T05:00:52;15.80;97.50
18103;DHT22;9178;51.120;6.192;2022-09-03T05:03:19;15.80;97.50
18103;DHT22;9178;51.120;6.192;2022-09-03T05:05:55;15.80;97.70
18103;DHT22;9178;51.120;6.192;2022-09-03T05:08:22;15.80;97.80
18103;DHT22;9178;51.120;6.192;2022-09-03T05:10:57;15.90;97.80
18103;DHT22;9178;51.120;6.192;2022-09-03T05:13:24;15.90;97.80
18103;DHT22;9178;51.120;6.192;2022-09-03T05:15:51;15.90;97.70
18103;DHT22;9178;51.120;6.192;2022-09-03T05:18:18;16.00;97.80
18103;DHT22;9178;51.120;6.192;2022-09-03T05:20:45;16.00;97.50
18103;DHT22;9178;51.120;6.192;2022-09-03T05:23:14;16.10;97.50
18103;DHT22;9178;51.120;6.192;2022-09-03T05:25:41;16.10;97.80
18103;DHT22;9178;51.120;6.192;2022-09-03T05:28:07;16.20;97.50
18103;DHT22;9178;51.120;6.192;2022-09-03T05:30:35;16.20;97.40
18103;DHT22;9178;51.120;6.192;2022-09-03T05:33:03;16.30;97.30
18103;DHT22;9178;51.120;6.192;2022-09-03T05:35:30;16.30;97.30
18103;DHT22;9178;51.120;6.192;2022-09-03T05:37:57;16.40;97.10
18103;DHT22;9178;51.120;6.192;2022-09-03T05:40:26;16.50;97.00
18103;DHT22;9178;51.120;6.192;2022-09-03T05:42:55;16.50;96.90
18103;DHT22;9178;51.120;6.192;2022-09-03T05:45:23;16.50;96.90
18103;DHT22;9178;51.120;6.192;2022-09-03T05:47:50;16.60;96.80
18103;DHT22;9178;51.120;6.192;2022-09-03T05:50:17;16.60;96.80
18103;DHT22;9178;51.120;6.192;2022-09-03T05:52:43;16.60;96.60
18103;DHT22;9178;51.120;6.192;2022-09-03T05:55:10;16.70;96.40
18103;DHT22;9178;51.120;6.192;2022-09-03T05:57:38;16.70;96.80
18103;DHT22;9178;51.120;6.192;2022-09-03T06:00:06;16.70;96.60
18103;DHT22;9178;51.120;6.192;2022-09-03T06:02:33;16.70;96.70
18103;DHT22;9178;51.120;6.192;2022-09-03T06:05:00;16.70;96.50
18103;DHT22;9178;51.120;6.192;2022-09-03T06:07:27;16.80;96.50
18103;DHT22;9178;51.120;6.192;2022-09-03T06:09:54;16.80;96.40
18103;DHT22;9178;51.120;6.192;2022-09-03T06:12:21;16.90;96.20
18103;DHT22;9178;51.120;6.192;2022-09-03T06:14:49;17.00;96.50
18103;DHT22;9178;51.120;6.192;2022-09-03T06:17:16;17.00;96.40
18103;DHT22;9178;51.120;6.192;2022-09-03T06:19:43;17.10;96.40
18103;DHT22;9178;51.120;6.192;2022-09-03T06:22:10;17.20;95.90
18103;DHT22;9178;51.120;6.192;2022-09-03T06:24:37;17.20;95.80
18103;DHT22;9178;51.120;6.192;2022-09-03T06:27:04;17.30;95.60
18103;DHT22;9178;51.120;6.192;2022-09-03T06:29:31;17.30;95.60
18103;DHT22;9178;51.120;6.192;2022-09-03T06:31:59;17.30;95.20
18103;DHT22;9178;51.120;6.192;2022-09-03T06:34:26;17.40;95.20
18103;DHT22;9178;51.120;6.192;2022-09-03T06:36:54;17.40;95.80
18103;DHT22;9178;51.120;6.192;2022-09-03T06:39:20;17.50;95.20
18103;DHT22;9178;51.120;6.192;2022-09-03T06:41:47;17.60;95.20
18103;DHT22;9178;51.120;6.192;2022-09-03T06:44:16;17.60;95.10
18103;DHT22;9178;51.120;6.192;2022-09-03T06:46:43;17.70;95.40
18103;DHT22;9178;51.120;6.192;2022-09-03T06:49:13;17.80;95.80
18103;DHT22;9178;51.120;6.192;2022-09-03T06:51:40;17.90;94.90
18103;DHT22;9178;51.120;6.192;2022-09-03T06:54:09;17.90;94.60
18103;DHT22;9178;51.120;6.192;2022-09-03T06:56:37;18.10;94.50
18103;DHT22;9178;51.120;6.192;2022-09-03T06:59:06;18.20;94.40
18103;DHT22;9178;51.120;6.192;2022-09-03T07:01:33;18.30;93.80
18103;DHT22;9178;51.120;6.192;2022-09-03T07:04:01;18.40;93.90
18103;DHT22;9178;51.120;6.192;2022-09-03T07:06:31;18.50;93.40
18103;DHT22;9178;51.120;6.192;2022-09-03T07:08:58;18.50;92.90
18103;DHT22;9178;51.120;6.192;2022-09-03T07:11:27;18.60;92.90
18103;DHT22;9178;51.120;6.192;2022-09-03T07:13:56;18.70;92.90
18103;DHT22;9178;51.120;6.192;2022-09-03T07:16:24;18.70;93.20
18103;DHT22;9178;51.120;6.192;2022-09-03T07:18:52;18.80;92.40
18103;DHT22;9178;51.120;6.192;2022-09-03T07:21:21;18.80;92.40
18103;DHT22;9178;51.120;6.192;2022-09-03T07:23:51;19.00;93.40
18103;DHT22;9178;51.120;6.192;2022-09-03T07:26:20;19.20;92.30
18103;DHT22;9178;51.120;6.192;2022-09-03T07:28:47;19.50;92.50
18103;DHT22;9178;51.120;6.192;2022-09-03T07:31:16;19.90;92.60
18103;DHT22;9178;51.120;6.192;2022-09-03T07:33:44;20.40;92.20
18103;DHT22;9178;51.120;6.192;2022-09-03T07:36:13;20.70;90.40
18103;DHT22;9178;51.120;6.192;2022-09-03T07:38:42;20.90;90.20
18103;DHT22;9178;51.120;6.192;2022-09-03T07:41:13;21.20;90.40
18103;DHT22;9178;51.120;6.192;2022-09-03T07:43:41;21.50;90.10
18103;DHT22;9178;51.120;6.192;2022-09-03T07:46:08;21.60;90.00
18103;DHT22;9178;51.120;6.192;2022-09-03T07:48:38;21.80;89.20
18103;DHT22;9178;51.120;6.192;2022-09-03T07:51:05;21.90;88.70
18103;DHT22;9178;51.120;6.192;2022-09-03T07:53:32;21.90;86.00
18103;DHT22;9178;51.120;6.192;2022-09-03T07:56:05;21.80;86.30
18103;DHT22;9178;51.120;6.192;2022-09-03T07:58:34;21.70;85.90
18103;DHT22;9178;51.120;6.192;2022-09-03T08:01:03;21.60;85.30
18103;DHT22;9178;51.120;6.192;2022-09-03T08:03:32;21.40;87.20
18103;DHT22;9178;51.120;6.192;2022-09-03T08:06:00;21.40;85.60
18103;DHT22;9178;51.120;6.192;2022-09-03T08:08:28;21.30;85.70
18103;DHT22;9178;51.120;6.192;2022-09-03T08:10:55;21.20;86.50
18103;DHT22;9178;51.120;6.192;2022-09-03T08:13:28;21.20;85.50
18103;DHT22;9178;51.120;6.192;2022-09-03T08:15:56;21.20;86.10
18103;DHT22;9178;51.120;6.192;2022-09-03T08:18:24;21.20;86.10
18103;DHT22;9178;51.120;6.192;2022-09-03T08:20:51;21.20;84.70
18103;DHT22;9178;51.120;6.192;2022-09-03T08:23:18;21.20;84.80
18103;DHT22;9178;51.120;6.192;2022-09-03T08:25:45;21.20;85.50
18103;DHT22;9178;51.120;6.192;2022-09-03T08:28:12;21.20;85.70
18103;DHT22;9178;51.120;6.192;2022-09-03T08:30:47;21.20;87.00
18103;DHT22;9178;51.120;6.192;2022-09-03T08:33:15;21.20;87.70
18103;DHT22;9178;51.120;6.192;2022-09-03T08:36:02;21.10;85.80
18103;DHT22;9178;51.120;6.192;2022-09-03T08:38:30;21.20;85.00
18103;DHT22;9178;51.120;6.192;2022-09-03T08:41:05;21.20;88.60
18103;DHT22;9178;51.120;6.192;2022-09-03T08:43:42;21.20;85.70
18103;DHT22;9178;51.120;6.192;2022-09-03T08:46:12;21.30;85.90
18103;DHT22;9178;51.120;6.192;2022-09-03T08:48:40;21.40;86.00
18103;DHT22;9178;51.120;6.192;2022-09-03T08:51:08;21.50;85.90
18103;DHT22;9178;51.120;6.192;2022-09-03T08:53:43;21.50;85.20
18103;DHT22;9178;51.120;6.192;2022-09-03T08:56:25;21.50;86.00
18103;DHT22;9178;51.120;6.192;2022-09-03T08:58:53;21.50;85.50
18103;DHT22;9178;51.120;6.192;2022-09-03T09:01:29;21.50;86.50
18103;DHT22;9178;51.120;6.192;2022-09-03T09:04:09;21.60;86.60
18103;DHT22;9178;51.120;6.192;2022-09-03T09:06:45;21.60;88.70
18103;DHT22;9178;51.120;6.192;2022-09-03T09:09:24;21.60;86.00
18103;DHT22;9178;51.120;6.192;2022-09-03T09:12:06;21.70;85.20
18103;DHT22;9178;51.120;6.192;2022-09-03T09:14:38;21.80;85.70
18103;DHT22;9178;51.120;6.192;2022-09-03T09:17:25;21.90;84.70
18103;DHT22;9178;51.120;6.192;2022-09-03T09:20:03;22.00;86.60
18103;DHT22;9178;51.120;6.192;2022-09-03T09:22:35;22.10;86.10
18103;DHT22;9178;51.120;6.192;2022-09-03T09:25:07;22.10;83.90
18103;DHT22;9178;51.120;6.192;2022-09-03T09:27:41;22.00;83.90
18103;DHT22;9178;51.120;6.192;2022-09-03T09:30:12;22.10;83.60
18103;DHT22;9178;51.120;6.192;2022-09-03T09:32:42;22.10;86.70
18103;DHT22;9178;51.120;6.192;2022-09-03T09:35:10;22.10;85.20
18103;DHT22;9178;51.120;6.192;2022-09-03T09:37:46;22.10;88.10
18103;DHT22;9178;51.120;6.192;2022-09-03T09:40:23;22.10;84.30
18103;DHT22;9178;51.120;6.192;2022-09-03T09:42:50;22.10;84.00
18103;DHT22;9178;51.120;6.192;2022-09-03T09:45:23;22.20;85.00
18103;DHT22;9178;51.120;6.192;2022-09-03T09:47:53;22.30;85.70
18103;DHT22;9178;51.120;6.192;2022-09-03T09:50:22;22.40;88.10
18103;DHT22;9178;51.120;6.192;2022-09-03T09:52:59;22.50;86.10
18103;DHT22;9178;51.120;6.192;2022-09-03T09:55:27;22.50;90.80
18103;DHT22;9178;51.120;6.192;2022-09-03T09:58:05;22.60;90.60
18103;DHT22;9178;51.120;6.192;2022-09-03T10:00:34;22.60;88.70
18103;DHT22;9178;51.120;6.192;2022-09-03T10:03:06;22.70;88.80
18103;DHT22;9178;51.120;6.192;2022-09-03T10:05:37;22.70;86.50
18103;DHT22;9178;51.120;6.192;2022-09-03T10:08:19;22.80;85.90
18103;DHT22;9178;51.120;6.192;2022-09-03T10:10:48;22.90;86.70
18103;DHT22;9178;51.120;6.192;2022-09-03T10:13:18;22.80;86.30
18103;DHT22;9178;51.120;6.192;2022-09-03T10:15:49;22.80;85.10
18103;DHT22;9178;51.120;6.192;2022-09-03T10:18:21;22.80;86.50
18103;DHT22;9178;51.120;6.192;2022-09-03T10:20:59;22.80;85.10
18103;DHT22;9178;51.120;6.192;2022-09-03T10:23:32;22.90;86.10
18103;DHT22;9178;51.120;6.192;2022-09-03T10:26:03;23.00;87.00
18103;DHT22;9178;51.120;6.192;2022-09-03T10:28:37;23.00;89.30
18103;DHT22;9178;51.120;6.192;2022-09-03T10:31:14;23.10;87.90
18103;DHT22;9178;51.120;6.192;2022-09-03T10:33:47;23.30;86.10
18103;DHT22;9178;51.120;6.192;2022-09-03T10:36:20;23.30;87.50
18103;DHT22;9178;51.120;6.192;2022-09-03T10:38:52;23.40;86.10
18103;DHT22;9178;51.120;6.192;2022-09-03T10:41:30;23.40;87.80
18103;DHT22;9178;51.120;6.192;2022-09-03T10:44:30;23.50;86.50
18103;DHT22;9178;51.120;6.192;2022-09-03T10:47:16;23.60;87.10
18103;DHT22;9178;51.120;6.192;2022-09-03T10:49:50;23.70;86.70
18103;DHT22;9178;51.120;6.192;2022-09-03T10:52:27;23.80;86.90
18103;DHT22;9178;51.120;6.192;2022-09-03T10:55:07;23.80;88.00
18103;DHT22;9178;51.120;6.192;2022-09-03T10:57:45;23.90;88.60
18103;DHT22;9178;51.120;6.192;2022-09-03T11:00:15;24.00;88.50
18103;DHT22;9178;51.120;6.192;2022-09-03T11:05:54;24.20;88.60
18103;DHT22;9178;51.120;6.192;2022-09-03T11:08:27;24.20;89.10
18103;DHT22;9178;51.120;6.192;2022-09-03T11:10:59;24.30;88.90
18103;DHT22;9178;51.120;6.192;2022-09-03T11:13:33;24.40;88.40
18103;DHT22;9178;51.120;6.192;2022-09-03T11:16:05;24.40;88.30
18103;DHT22;9178;51.120;6.192;2022-09-03T11:18:41;24.40;88.70
18103;DHT22;9178;51.120;6.192;2022-09-03T11:21:12;24.40;87.70
18103;DHT22;9178;51.120;6.192;2022-09-03T11:23:42;24.40;89.50
18103;DHT22;9178;51.120;6.192;2022-09-03T11:26:12;24.40;88.80
18103;DHT22;9178;51.120;6.192;2022-09-03T11:28:45;24.40;88.80
18103;DHT22;9178;51.120;6.192;2022-09-03T11:31:28;24.50;88.90
18103;DHT22;9178;51.120;6.192;2022-09-03T11:34:00;24.50;88.60
18103;DHT22;9178;51.120;6.192;2022-09-03T11:36:33;24.60;88.20
18103;DHT22;9178;51.120;6.192;2022-09-03T11:39:12;24.60;88.30
18103;DHT22;9178;51.120;6.192;2022-09-03T11:41:41;24.60;88.20
18103;DHT22;9178;51.120;6.192;2022-09-03T11:44:16;24.70;89.50
18103;DHT22;9178;51.120;6.192;2022-09-03T11:46:52;24.70;87.60
18103;DHT22;9178;51.120;6.192;2022-09-03T11:49:27;24.70;87.10
18103;DHT22;9178;51.120;6.192;2022-09-03T11:51:59;24.70;88.10
18103;DHT22;9178;51.120;6.192;2022-09-03T11:54:31;24.70;86.90
18103;DHT22;9178;51.120;6.192;2022-09-03T11:57:12;24.70;88.40
18103;DHT22;9178;51.120;6.192;2022-09-03T11:59:41;24.70;86.10
18103;DHT22;9178;51.120;6.192;2022-09-03T12:02:25;24.60;87.40
18103;DHT22;9178;51.120;6.192;2022-09-03T12:05:15;24.50;88.70
18103;DHT22;9178;51.120;6.192;2022-09-03T12:08:08;24.50;88.80
18103;DHT22;9178;51.120;6.192;2022-09-03T12:10:47;24.60;88.60
18103;DHT22;9178;51.120;6.192;2022-09-03T12:13:25;24.60;89.30
18103;DHT22;9178;51.120;6.192;2022-09-03T12:16:15;24.60;89.50
18103;DHT22;9178;51.120;6.192;2022-09-03T12:18:47;24.70;89.80
18103;DHT22;9178;51.120;6.192;2022-09-03T12:21:18;24.70;88.50
18103;DHT22;9178;51.120;6.192;2022-09-03T12:23:47;24.70;88.80
18103;DHT22;9178;51.120;6.192;2022-09-03T12:26:17;24.70;88.50
18103;DHT22;9178;51.120;6.192;2022-09-03T12:28:49;24.80;89.10
18103;DHT22;9178;51.120;6.192;2022-09-03T12:31:18;24.70;89.40
18103;DHT22;9178;51.120;6.192;2022-09-03T12:33:51;24.80;90.00
18103;DHT22;9178;51.120;6.192;2022-09-03T12:36:20;24.80;88.20
18103;DHT22;9178;51.120;6.192;2022-09-03T12:38:47;24.80;88.30
18103;DHT22;9178;51.120;6.192;2022-09-03T12:41:27;24.90;89.00
18103;DHT22;9178;51.120;6.192;2022-09-03T12:43:57;24.90;90.40
18103;DHT22;9178;51.120;6.192;2022-09-03T12:46:26;25.00;88.70
18103;DHT22;9178;51.120;6.192;2022-09-03T12:48:54;25.20;88.70
18103;DHT22;9178;51.120;6.192;2022-09-03T12:51:22;25.30;89.10
18103;DHT22;9178;51.120;6.192;2022-09-03T12:53:50;25.40;89.20
18103;DHT22;9178;51.120;6.192;2022-09-03T12:56:19;25.50;88.50
18103;DHT22;9178;51.120;6.192;2022-09-03T12:58:51;25.50;87.10
18103;DHT22;9178;51.120;6.192;2022-09-03T13:01:25;25.40;87.30
18103;DHT22;9178;51.120;6.192;2022-09-03T13:04:00;25.40;89.50
18103;DHT22;9178;51.120;6.192;2022-09-03T13:06:34;25.40;87.80
18103;DHT22;9178;51.120;6.192;2022-09-03T13:09:07;25.40;90.00
18103;DHT22;9178;51.120;6.192;2022-09-03T13:11:35;25.40;87.50
18103;DHT22;9178;51.120;6.192;2022-09-03T13:14:06;25.40;89.00
18103;DHT22;9178;51.120;6.192;2022-09-03T13:19:39;25.50;87.40
18103;DHT22;9178;51.120;6.192;2022-09-03T13:22:16;25.50;88.90
18103;DHT22;9178;51.120;6.192;2022-09-03T13:24:59;25.50;88.00
18103;DHT22;9178;51.120;6.192;2022-09-03T13:27:35;25.70;90.20
18103;DHT22;9178;51.120;6.192;2022-09-03T13:30:07;26.00;90.00
18103;DHT22;9178;51.120;6.192;2022-09-03T13:32:46;26.40;88.50
18103;DHT22;9178;51.120;6.192;2022-09-03T13:35:23;27.10;89.50
18103;DHT22;9178;51.120;6.192;2022-09-03T13:37:56;28.10;86.60
18103;DHT22;9178;51.120;6.192;2022-09-03T13:40:34;28.80;85.00
18103;DHT22;9178;51.120;6.192;2022-09-03T13:43:04;29.70;84.50
18103;DHT22;9178;51.120;6.192;2022-09-03T13:45:38;30.30;79.10
18103;DHT22;9178;51.120;6.192;2022-09-03T13:48:10;30.50;79.50
18103;DHT22;9178;51.120;6.192;2022-09-03T13:51:02;30.40;76.10
18103;DHT22;9178;51.120;6.192;2022-09-03T13:53:39;30.10;75.30
18103;DHT22;9178;51.120;6.192;2022-09-03T13:56:18;29.70;74.80
18103;DHT22;9178;51.120;6.192;2022-09-03T13:58:49;29.90;77.90
18103;DHT22;9178;51.120;6.192;2022-09-03T14:01:25;29.90;75.10
18103;DHT22;9178;51.120;6.192;2022-09-03T14:03:55;29.60;75.40
18103;DHT22;9178;51.120;6.192;2022-09-03T14:06:36;29.20;74.10
18103;DHT22;9178;51.120;6.192;2022-09-03T14:09:12;28.80;75.80
18103;DHT22;9178;51.120;6.192;2022-09-03T14:11:51;28.50;76.10
18103;DHT22;9178;51.120;6.192;2022-09-03T14:14:30;28.30;76.70
18103;DHT22;9178;51.120;6.192;2022-09-03T14:17:12;28.20;80.50
18103;DHT22;9178;51.120;6.192;2022-09-03T14:19:45;28.40;78.70
18103;DHT22;9178;51.120;6.192;2022-09-03T14:22:20;28.70;79.10
18103;DHT22;9178;51.120;6.192;2022-09-03T14:24:51;29.20;77.50
18103;DHT22;9178;51.120;6.192;2022-09-03T14:27:23;29.40;76.30
18103;DHT22;9178;51.120;6.192;2022-09-03T14:29:56;29.50;74.10
18103;DHT22;9178;51.120;6.192;2022-09-03T14:32:33;29.40;74.40
18103;DHT22;9178;51.120;6.192;2022-09-03T14:35:16;29.40;75.30
18103;DHT22;9178;51.120;6.192;2022-09-03T14:38:12;29.50;73.90
18103;DHT22;9178;51.120;6.192;2022-09-03T14:40:45;29.40;73.20
18103;DHT22;9178;51.120;6.192;2022-09-03T14:43:30;29.20;74.30
18103;DHT22;9178;51.120;6.192;2022-09-03T14:46:11;29.10;73.50
18103;DHT22;9178;51.120;6.192;2022-09-03T14:48:51;29.10;75.00
18103;DHT22;9178;51.120;6.192;2022-09-03T14:51:33;29.40;75.10
18103;DHT22;9178;51.120;6.192;2022-09-03T14:54:35;29.50;73.80
18103;DHT22;9178;51.120;6.192;2022-09-03T14:57:26;29.40;73.20
18103;DHT22;9178;51.120;6.192;2022-09-03T15:00:06;29.30;73.40
18103;DHT22;9178;51.120;6.192;2022-09-03T15:02:58;29.20;72.80
18103;DHT22;9178;51.120;6.192;2022-09-03T15:06:00;29.30;72.90
18103;DHT22;9178;51.120;6.192;2022-09-03T15:08:48;29.10;73.00
18103;DHT22;9178;51.120;6.192;2022-09-03T15:11:22;29.20;75.50
18103;DHT22;9178;51.120;6.192;2022-09-03T15:13:52;29.60;74.50
18103;DHT22;9178;51.120;6.192;2022-09-03T15:16:38;30.00;72.30
18103;DHT22;9178;51.120;6.192;2022-09-03T15:19:22;30.40;71.80
18103;DHT22;9178;51.120;6.192;2022-09-03T15:22:07;30.80;73.40
18103;DHT22;9178;51.120;6.192;2022-09-03T15:24:44;31.10;70.50
18103;DHT22;9178;51.120;6.192;2022-09-03T15:30:10;31.20;74.00
18103;DHT22;9178;51.120;6.192;2022-09-03T15:32:47;31.20;69.00
18103;DHT22;9178;51.120;6.192;2022-09-03T15:35:33;30.80;67.70
18103;DHT22;9178;51.120;6.192;2022-09-03T15:38:07;30.30;71.90
18103;DHT22;9178;51.120;6.192;2022-09-03T15:40:41;30.20;72.50
18103;DHT22;9178;51.120;6.192;2022-09-03T15:43:17;30.10;72.00
18103;DHT22;9178;51.120;6.192;2022-09-03T15:45:52;29.90;71.00
18103;DHT22;9178;51.120;6.192;2022-09-03T15:48:29;29.80;73.40
18103;DHT22;9178;51.120;6.192;2022-09-03T15:51:08;29.70;72.00
18103;DHT22;9178;51.120;6.192;2022-09-03T15:53:43;29.50;72.50
18103;DHT22;9178;51.120;6.192;2022-09-03T15:56:17;29.30;72.20
18103;DHT22;9178;51.120;6.192;2022-09-03T15:58:51;28.90;72.20
18103;DHT22;9178;51.120;6.192;2022-09-03T16:01:25;28.70;72.50
18103;DHT22;9178;51.120;6.192;2022-09-03T16:04:02;28.50;72.90
18103;DHT22;9178;51.120;6.192;2022-09-03T16:06:42;28.20;72.90
18103;DHT22;9178;51.120;6.192;2022-09-03T16:09:28;28.00;74.40
18103;DHT22;9178;51.120;6.192;2022-09-03T16:12:07;27.90;74.70
18103;DHT22;9178;51.120;6.192;2022-09-03T16:14:38;27.70;75.50
18103;DHT22;9178;51.120;6.192;2022-09-03T16:17:17;27.60;75.70
18103;DHT22;9178;51.120;6.192;2022-09-03T16:19:53;27.50;76.50
18103;DHT22;9178;51.120;6.192;2022-09-03T16:22:26;27.30;75.90
18103;DHT22;9178;51.120;6.192;2022-09-03T16:25:00;27.20;78.40
18103;DHT22;9178;51.120;6.192;2022-09-03T16:27:31;27.10;78.00
18103;DHT22;9178;51.120;6.192;2022-09-03T16:30:02;27.00;77.20
18103;DHT22;9178;51.120;6.192;2022-09-03T16:32:56;26.80;79.10